Time;durP1;ratioP1;P1;durP2;ratioP2;P2;SDS_P1;SDS_P2;PMS_P1;PMS_P2;Temp;Humidity;BMP_temperature;BMP_pressure;BME280_temperature;BME280_humidity;BME280_pressure;Samples;Min_cycle;Max_cycle;Signal;HPM_P1;HPM_P2
2023/07/25 00:01:06;;;;;;;3.80;2.57;;;17.50;99.90;;;;;;5083661;28;20441;-74
2023/07/25 00:03:53;;;;;;;5.63;2.83;;;17.40;99.90;;;;;;5087605;28;20748;-73
2023/07/25 00:06:39;;;;;;;8.33;2.57;;;17.30;99.90;;;;;;5087972;28;20554;-71
2023/07/25 00:09:25;;;;;;;8.93;2.70;;;17.30;99.90;;;;;;5081616;28;20471;-73
2023/07/25 00:12:10;;;;;;;6.43;2.60;;;17.30;99.90;;;;;;5088626;28;20463;-72
2023/07/25 00:14:56;;;;;;;4.80;2.50;;;17.30;99.90;;;;;;5090515;28;20448;-72
2023/07/25 00:17:41;;;;;;;2.77;2.30;;;17.30;99.90;;;;;;5087657;28;20447;-72
2023/07/25 00:20:28;;;;;;;6.10;3.70;;;17.40;99.90;;;;;;5089067;28;20453;-71
2023/07/25 00:23:14;;;;;;;5.60;2.30;;;17.30;99.90;;;;;;5085359;28;20519;-72
2023/07/25 00:25:59;;;;;;;5.80;2.60;;;17.40;99.90;;;;;;5088158;28;20416;-71
2023/07/25 00:28:45;;;;;;;3.27;2.53;;;17.50;99.90;;;;;;5089503;28;20437;-72
2023/07/25 00:31:30;;;;;;;6.10;2.33;;;17.50;99.90;;;;;;5086783;28;20911;-73
2023/07/25 00:34:16;;;;;;;5.90;2.80;;;17.50;99.90;;;;;;5085999;28;20519;-71
2023/07/25 00:37:03;;;;;;;6.07;2.77;;;17.30;99.90;;;;;;5090608;28;20940;-72
2023/07/25 00:39:52;;;;;;;9.30;2.60;;;17.20;99.90;;;;;;5088127;28;20445;-72
2023/07/25 00:42:38;;;;;;;8.07;2.90;;;17.10;99.90;;;;;;5086186;28;20467;-71
2023/07/25 00:45:25;;;;;;;9.50;2.60;;;17.00;99.90;;;;;;5085561;28;20816;-73
2023/07/25 00:48:10;;;;;;;5.10;3.23;;;16.90;99.90;;;;;;5081861;28;20812;-71
2023/07/25 00:50:55;;;;;;;3.40;2.13;;;16.90;99.90;;;;;;5084749;28;20445;-72
2023/07/25 00:53:42;;;;;;;8.63;2.80;;;16.80;99.90;;;;;;5091861;28;20966;-72
2023/07/25 00:56:28;;;;;;;4.07;2.43;;;16.80;99.90;;;;;;5087628;28;20483;-71
2023/07/25 00:59:13;;;;;;;10.23;3.07;;;16.80;99.90;;;;;;5086347;28;21004;-72
2023/07/25 01:02:00;;;;;;;6.87;2.80;;;16.70;99.90;;;;;;5082275;28;20440;-71
2023/07/25 01:04:45;;;;;;;6.53;2.67;;;16.70;99.90;;;;;;5087279;28;20493;-72
2023/07/25 01:07:31;;;;;;;5.93;2.43;;;16.70;99.90;;;;;;5084132;28;20482;-71
2023/07/25 01:10:18;;;;;;;6.20;2.87;;;16.70;99.90;;;;;;5081061;28;20424;-72
2023/07/25 01:13:04;;;;;;;6.53;2.77;;;16.80;99.90;;;;;;5084203;28;20456;-73
2023/07/25 01:15:50;;;;;;;3.30;2.20;;;16.80;99.90;;;;;;5083929;28;20451;-72
2023/07/25 01:18:36;;;;;;;7.80;3.30;;;16.90;99.90;;;;;;5083543;28;20446;-72
2023/07/25 01:21:22;;;;;;;4.00;2.50;;;16.80;99.90;;;;;;5083778;28;21880;-73
2023/07/25 01:24:08;;;;;;;6.80;2.33;;;16.80;99.90;;;;;;5087200;28;20917;-73
2023/07/25 01:26:55;;;;;;;3.50;2.30;;;16.70;99.90;;;;;;5087304;28;20609;-72
2023/07/25 01:29:41;;;;;;;3.70;2.70;;;16.60;99.90;;;;;;5086440;28;20438;-71
2023/07/25 01:32:26;;;;;;;5.93;2.70;;;16.40;99.90;;;;;;5080875;28;20461;-72
2023/07/25 01:35:12;;;;;;;6.40;2.53;;;16.30;99.90;;;;;;5081422;28;20450;-72
2023/07/25 01:37:57;;;;;;;11.53;3.10;;;16.30;99.90;;;;;;5087299;28;20439;-71
2023/07/25 01:40:44;;;;;;;3.67;2.30;;;16.20;99.90;;;;;;5086465;28;20920;-72
2023/07/25 01:43:30;;;;;;;5.07;2.97;;;16.10;99.90;;;;;;5088133;28;20802;-71
2023/07/25 01:46:15;;;;;;;5.83;4.10;;;16.00;99.90;;;;;;5082558;28;20488;-72
2023/07/25 01:49:01;;;;;;;6.30;3.30;;;16.00;99.90;;;;;;5082108;28;20520;-71
2023/07/25 01:51:46;;;;;;;7.10;3.00;;;16.00;99.90;;;;;;5084489;28;20541;-72
2023/07/25 01:54:32;;;;;;;3.57;2.70;;;15.80;99.90;;;;;;5080776;28;20571;-73
2023/07/25 01:57:19;;;;;;;3.93;2.80;;;15.60;99.90;;;;;;5087112;28;20409;-72
2023/07/25 02:00:05;;;;;;;4.23;2.57;;;15.50;99.90;;;;;;5082212;28;20419;-72
2023/07/25 02:02:50;;;;;;;3.30;2.40;;;15.50;99.90;;;;;;5081025;28;20469;-72
2023/07/25 02:05:36;;;;;;;8.20;2.37;;;15.60;99.90;;;;;;5082218;28;20450;-72
2023/07/25 02:08:21;;;;;;;7.00;2.93;;;15.70;99.90;;;;;;5084610;28;20432;-73
2023/07/25 02:11:07;;;;;;;3.07;2.27;;;15.60;99.90;;;;;;5083267;28;20446;-73
2023/07/25 02:13:55;;;;;;;11.80;2.57;;;15.70;99.90;;;;;;5087437;28;20416;-73
2023/07/25 02:16:40;;;;;;;7.10;3.20;;;15.80;99.90;;;;;;5083359;28;20963;-73
2023/07/25 02:19:26;;;;;;;7.10;3.20;;;15.90;99.90;;;;;;5082329;28;20815;-72
2023/07/25 02:22:11;;;;;;;5.93;3.07;;;15.90;99.90;;;;;;5083352;28;20534;-71
2023/07/25 02:24:57;;;;;;;9.20;3.13;;;15.80;99.90;;;;;;5082771;28;20829;-72
2023/07/25 02:27:42;;;;;;;6.40;3.13;;;15.80;99.90;;;;;;5085527;28;20505;-73
2023/07/25 02:30:29;;;;;;;10.13;3.00;;;15.80;99.90;;;;;;5090614;28;20955;-72
2023/07/25 02:33:15;;;;;;;5.17;2.40;;;15.90;99.90;;;;;;5087134;28;21039;-72
2023/07/25 02:36:00;;;;;;;10.63;2.50;;;16.00;99.90;;;;;;5079735;28;20978;-73
2023/07/25 02:38:46;;;;;;;4.30;2.63;;;16.10;99.90;;;;;;5085865;28;20818;-71
2023/07/25 02:41:32;;;;;;;4.77;2.57;;;16.20;99.90;;;;;;5086187;28;20413;-71
2023/07/25 02:44:17;;;;;;;4.73;2.50;;;16.30;99.90;;;;;;5075134;28;20434;-72
2023/07/25 02:47:04;;;;;;;3.00;2.23;;;16.40;99.90;;;;;;5085782;28;21010;-71
2023/07/25 02:49:50;;;;;;;5.10;2.63;;;16.40;99.90;;;;;;5083629;28;20438;-72
2023/07/25 02:52:35;;;;;;;3.80;2.40;;;16.50;99.90;;;;;;5078414;28;21415;-73
2023/07/25 02:55:21;;;;;;;3.70;2.50;;;16.40;99.90;;;;;;5080877;28;20526;-73
2023/07/25 02:58:07;;;;;;;3.27;2.40;;;16.40;99.90;;;;;;5086530;28;20777;-73
2023/07/25 03:00:52;;;;;;;3.57;2.40;;;16.50;99.90;;;;;;5081466;28;20438;-72
2023/07/25 03:03:39;;;;;;;6.33;2.67;;;16.50;99.90;;;;;;5088482;28;20687;-73
2023/07/25 03:06:24;;;;;;;6.23;2.40;;;16.50;99.90;;;;;;5081987;28;20512;-74
2023/07/25 03:09:10;;;;;;;3.50;2.83;;;16.30;99.90;;;;;;5081693;28;20442;-73
2023/07/25 03:11:55;;;;;;;10.33;2.93;;;16.30;99.90;;;;;;5087278;28;21018;-73
2023/07/25 03:14:41;;;;;;;3.23;2.30;;;16.30;99.90;;;;;;5087920;28;20532;-73
2023/07/25 03:17:26;;;;;;;3.67;2.70;;;16.40;99.90;;;;;;5090450;28;20446;-73
2023/07/25 03:20:13;;;;;;;5.90;2.57;;;16.40;99.90;;;;;;5080585;28;21314;-73
2023/07/25 03:22:59;;;;;;;3.50;2.80;;;16.40;99.90;;;;;;5081063;28;20681;-72
2023/07/25 03:25:44;;;;;;;5.33;2.70;;;16.50;99.90;;;;;;5073944;28;20508;-72
2023/07/25 03:28:29;;;;;;;5.33;3.53;;;16.40;99.90;;;;;;5085606;28;20555;-73
2023/07/25 03:31:15;;;;;;;10.50;3.53;;;16.50;99.90;;;;;;5084262;28;20518;-73
2023/07/25 03:34:00;;;;;;;4.73;2.57;;;16.50;99.90;;;;;;5082973;28;20416;-73
2023/07/25 03:36:47;;;;;;;8.47;2.57;;;16.50;99.90;;;;;;5081648;28;20421;-73
2023/07/25 03:39:33;;;;;;;6.03;2.80;;;16.50;99.90;;;;;;5085407;28;20425;-74
2023/07/25 03:42:18;;;;;;;3.87;3.00;;;16.50;99.90;;;;;;5082296;28;20474;-73
2023/07/25 03:45:04;;;;;;;3.33;2.47;;;16.40;99.90;;;;;;5081223;28;20574;-73
2023/07/25 03:47:50;;;;;;;11.20;2.60;;;16.30;99.90;;;;;;5082284;28;20477;-73
2023/07/25 03:50:35;;;;;;;3.70;2.67;;;16.30;99.90;;;;;;5080715;28;21067;-74
2023/07/25 03:53:22;;;;;;;6.60;2.80;;;16.30;99.90;;;;;;5081777;28;20471;-74
2023/07/25 03:56:08;;;;;;;4.33;2.27;;;16.20;99.90;;;;;;5081914;28;21139;-73
2023/07/25 03:58:53;;;;;;;3.70;2.70;;;16.10;99.90;;;;;;5085215;28;20413;-72
2023/07/25 04:01:39;;;;;;;5.93;3.10;;;16.00;99.90;;;;;;5079609;28;20795;-74
2023/07/25 04:04:24;;;;;;;3.80;2.90;;;15.80;99.90;;;;;;5085568;28;20417;-73
2023/07/25 04:07:10;;;;;;;6.47;2.67;;;15.80;99.90;;;;;;5081021;28;20442;-73
2023/07/25 04:09:57;;;;;;;7.33;3.10;;;15.70;99.90;;;;;;5082993;28;21032;-72
2023/07/25 04:12:42;;;;;;;5.27;3.07;;;15.50;99.90;;;;;;5076905;28;20559;-73
2023/07/25 04:15:28;;;;;;;6.00;3.60;;;15.60;99.90;;;;;;5082265;28;20945;-73
2023/07/25 04:18:14;;;;;;;13.87;4.07;;;15.70;99.90;;;;;;5083222;28;20850;-73
2023/07/25 04:20:59;;;;;;;5.80;3.00;;;15.80;99.90;;;;;;5084273;28;20429;-73
2023/07/25 04:23:44;;;;;;;4.37;2.70;;;15.90;99.90;;;;;;5081805;28;20420;-73
2023/07/25 04:26:31;;;;;;;4.33;2.80;;;16.10;99.90;;;;;;5079867;28;20519;-73
2023/07/25 04:29:17;;;;;;;6.47;3.03;;;16.20;99.90;;;;;;5083262;28;20549;-73
2023/07/25 04:32:02;;;;;;;5.53;2.97;;;16.30;99.90;;;;;;5079543;28;20803;-72
2023/07/25 04:34:48;;;;;;;7.63;2.73;;;16.40;99.90;;;;;;5080318;28;20556;-72
2023/07/25 04:37:33;;;;;;;5.33;3.07;;;16.40;99.90;;;;;;5084898;28;20441;-72
2023/07/25 04:40:19;;;;;;;5.30;2.93;;;16.40;99.90;;;;;;5081049;28;21187;-72
2023/07/25 04:43:06;;;;;;;5.93;2.83;;;16.50;99.90;;;;;;5084928;28;20440;-73
2023/07/25 04:45:51;;;;;;;5.60;2.70;;;16.50;99.90;;;;;;5085724;28;20446;-71
2023/07/25 04:48:37;;;;;;;5.20;2.93;;;16.40;99.90;;;;;;5082589;28;22354;-72
2023/07/25 04:51:22;;;;;;;3.40;2.77;;;16.40;99.90;;;;;;5087720;28;20447;-72
2023/07/25 04:54:08;;;;;;;5.50;3.50;;;16.50;99.90;;;;;;5086580;28;20441;-72
2023/07/25 04:56:54;;;;;;;4.73;3.40;;;16.50;99.90;;;;;;5091458;28;20565;-72
2023/07/25 04:59:41;;;;;;;9.10;3.07;;;16.40;99.90;;;;;;5078475;28;20428;-71
2023/07/25 05:02:26;;;;;;;4.03;3.13;;;16.50;99.90;;;;;;5085093;28;21000;-72
2023/07/25 05:05:11;;;;;;;5.23;3.50;;;16.60;99.90;;;;;;5089016;28;21171;-72
2023/07/25 05:07:57;;;;;;;6.20;3.27;;;16.70;99.90;;;;;;5086420;28;20843;-72
2023/07/25 05:10:43;;;;;;;4.10;3.03;;;16.70;99.90;;;;;;5082521;28;20833;-72
2023/07/25 05:13:28;;;;;;;5.40;2.80;;;16.70;99.90;;;;;;5082273;28;20470;-72
2023/07/25 05:16:15;;;;;;;5.80;2.67;;;16.80;99.90;;;;;;5087529;28;20454;-72
2023/07/25 05:19:01;;;;;;;8.33;3.53;;;16.90;99.90;;;;;;5091293;28;20484;-72
2023/07/25 05:21:47;;;;;;;5.10;3.97;;;17.00;99.90;;;;;;5084758;28;20465;-72
2023/07/25 05:24:32;;;;;;;3.90;3.03;;;17.10;99.90;;;;;;5091818;28;20450;-72
2023/07/25 05:27:18;;;;;;;7.40;3.20;;;17.10;99.90;;;;;;5087255;28;20551;-72
2023/07/25 05:30:04;;;;;;;4.00;2.93;;;17.10;99.90;;;;;;5083478;28;20976;-72
2023/07/25 05:32:51;;;;;;;4.87;3.10;;;17.10;99.90;;;;;;5089038;28;20884;-71
2023/07/25 05:35:36;;;;;;;5.20;3.43;;;17.00;99.90;;;;;;5085033;28;20442;-73
2023/07/25 05:38:22;;;;;;;5.93;3.40;;;16.90;99.90;;;;;;5089228;28;20852;-72
2023/07/25 05:41:08;;;;;;;5.17;3.50;;;16.90;99.90;;;;;;5080891;28;20446;-72
2023/07/25 05:43:53;;;;;;;5.30;3.37;;;16.90;99.90;;;;;;5088194;28;20427;-71
2023/07/25 05:46:39;;;;;;;6.40;3.57;;;16.90;99.90;;;;;;5083660;28;20438;-72
2023/07/25 05:49:26;;;;;;;5.83;3.40;;;16.90;99.90;;;;;;5084121;28;20494;-72
2023/07/25 05:52:12;;;;;;;9.47;3.43;;;16.80;99.90;;;;;;5080606;28;20494;-72
2023/07/25 05:54:57;;;;;;;5.27;3.43;;;16.80;99.90;;;;;;5085135;28;20817;-72
2023/07/25 05:57:43;;;;;;;7.77;4.07;;;16.70;99.90;;;;;;5087858;28;20504;-72
2023/07/25 06:00:28;;;;;;;5.40;3.40;;;16.80;99.90;;;;;;5088474;28;20947;-72
2023/07/25 06:03:15;;;;;;;3.77;3.37;;;16.90;99.90;;;;;;5083678;28;20954;-72
2023/07/25 06:06:03;;;;;;;6.40;3.57;;;17.00;99.90;;;;;;5085479;28;20461;-71
2023/07/25 06:08:48;;;;;;;5.82;3.42;;;17.10;99.90;;;;;;5086709;28;20615;-72
2023/07/25 06:11:34;;;;;;;5.17;3.03;;;17.10;99.90;;;;;;5089188;28;20212;-72
2023/07/25 06:14:19;;;;;;;6.60;3.53;;;17.10;99.90;;;;;;5087427;28;20975;-72
2023/07/25 06:17:05;;;;;;;9.43;3.87;;;17.20;99.90;;;;;;5087213;28;20498;-73
2023/07/25 06:19:50;;;;;;;5.10;3.57;;;17.20;99.90;;;;;;5089636;28;20588;-72
2023/07/25 06:22:38;;;;;;;10.53;3.37;;;17.10;99.90;;;;;;5086086;28;20824;-73
2023/07/25 06:25:23;;;;;;;5.33;3.37;;;17.20;99.90;;;;;;5077968;28;20486;-72
2023/07/25 06:28:10;;;;;;;6.83;3.60;;;17.30;99.90;;;;;;5085057;28;20466;-72
2023/07/25 06:30:56;;;;;;;5.27;3.53;;;17.30;99.90;;;;;;5088783;28;20462;-73
2023/07/25 06:33:41;;;;;;;6.30;3.37;;;17.40;99.90;;;;;;5088361;28;20578;-72
2023/07/25 06:36:27;;;;;;;5.23;3.10;;;17.50;99.90;;;;;;5087800;28;20444;-72
2023/07/25 06:39:14;;;;;;;17.33;3.87;;;17.60;99.90;;;;;;5080924;28;20819;-74
2023/07/25 06:41:59;;;;;;;5.40;4.00;;;17.60;99.90;;;;;;5076640;28;20450;-71
2023/07/25 06:44:45;;;;;;;5.90;3.83;;;17.70;99.90;;;;;;5080520;28;20473;-71
2023/07/25 06:47:30;;;;;;;6.20;3.87;;;17.80;99.90;;;;;;5082749;28;20457;-71
2023/07/25 06:50:16;;;;;;;5.03;3.63;;;17.80;99.90;;;;;;5085777;28;21047;-71
2023/07/25 06:53:01;;;;;;;8.20;4.40;;;17.90;99.90;;;;;;5081099;28;20454;-71
2023/07/25 06:55:48;;;;;;;8.80;4.43;;;17.90;99.90;;;;;;5083082;28;20474;-71
2023/07/25 06:58:34;;;;;;;6.13;4.30;;;18.00;99.90;;;;;;5084187;28;20437;-72
2023/07/25 07:01:20;;;;;;;5.63;4.33;;;18.00;99.90;;;;;;5078936;28;20464;-71
2023/07/25 07:04:05;;;;;;;6.10;4.63;;;18.00;99.90;;;;;;5085277;28;20409;-71
2023/07/25 07:06:51;;;;;;;9.33;4.83;;;18.00;99.90;;;;;;5089901;28;20782;-71
2023/07/25 07:09:36;;;;;;;9.73;4.50;;;18.00;99.90;;;;;;5088149;28;20470;-71
2023/07/25 07:12:23;;;;;;;6.50;4.30;;;18.10;99.90;;;;;;5084886;28;20560;-71
2023/07/25 07:15:09;;;;;;;7.50;4.33;;;18.10;99.90;;;;;;5080726;28;21108;-71
2023/07/25 07:17:54;;;;;;;5.97;4.87;;;18.10;99.90;;;;;;5082471;28;20439;-72
2023/07/25 07:20:40;;;;;;;7.70;5.20;;;18.00;99.90;;;;;;5072326;28;20410;-71
2023/07/25 07:23:26;;;;;;;6.10;4.70;;;18.00;99.90;;;;;;5076459;28;20473;-73
2023/07/25 07:26:11;;;;;;;4.93;4.43;;;17.90;99.90;;;;;;5075098;28;20853;-73
2023/07/25 07:28:58;;;;;;;6.20;4.80;;;17.90;99.90;;;;;;5082490;28;20495;-74
2023/07/25 07:31:44;;;;;;;7.10;5.47;;;17.90;99.90;;;;;;5084550;28;20548;-73
2023/07/25 07:34:32;;;;;;;8.13;6.17;;;18.00;99.90;;;;;;5089162;28;20505;-73
2023/07/25 07:37:18;;;;;;;10.77;4.70;;;18.00;99.90;;;;;;5085132;28;20446;-73
2023/07/25 07:40:04;;;;;;;7.57;6.70;;;18.00;99.90;;;;;;5086681;28;20913;-73
2023/07/25 07:42:50;;;;;;;5.60;4.87;;;18.00;99.90;;;;;;5084439;28;20463;-73
2023/07/25 07:45:36;;;;;;;6.90;4.80;;;18.00;99.90;;;;;;5082730;28;20501;-73
2023/07/25 07:48:22;;;;;;;5.80;4.57;;;18.10;99.90;;;;;;5083894;28;20445;-73
2023/07/25 07:51:07;;;;;;;6.47;4.23;;;18.20;99.90;;;;;;5086479;28;20479;-73
2023/07/25 07:53:53;;;;;;;7.30;4.10;;;18.40;99.90;;;;;;5082396;28;20451;-73
2023/07/25 07:56:38;;;;;;;7.20;4.80;;;18.60;99.90;;;;;;5087739;28;20575;-74
2023/07/25 07:59:24;;;;;;;6.27;4.10;;;18.80;99.90;;;;;;5077084;28;20470;-73
2023/07/25 08:02:11;;;;;;;5.13;3.63;;;18.80;99.90;;;;;;5083322;28;20441;-73
2023/07/25 08:04:56;;;;;;;6.07;3.87;;;18.80;99.90;;;;;;5087486;28;20408;-72
2023/07/25 08:07:42;;;;;;;7.53;3.70;;;18.90;99.90;;;;;;5084212;28;20442;-73
2023/07/25 08:10:28;;;;;;;8.17;2.90;;;18.90;99.90;;;;;;5080199;28;20479;-74
2023/07/25 08:13:13;;;;;;;6.63;3.50;;;18.90;99.90;;;;;;5083519;28;20469;-73
2023/07/25 08:15:59;;;;;;;7.93;3.03;;;18.90;99.90;;;;;;5078879;28;20455;-73
2023/07/25 08:18:46;;;;;;;3.07;2.20;;;18.90;99.90;;;;;;5086870;28;20543;-73
2023/07/25 08:21:31;;;;;;;4.03;2.47;;;18.90;99.90;;;;;;5084267;28;20434;-73
2023/07/25 08:24:17;;;;;;;4.53;2.90;;;18.90;99.90;;;;;;5083462;28;20454;-73
2023/07/25 08:27:02;;;;;;;3.60;2.70;;;19.00;99.90;;;;;;5085850;28;20424;-74
2023/07/25 08:29:48;;;;;;;3.00;2.10;;;19.00;99.90;;;;;;5088887;28;20828;-73
2023/07/25 08:32:34;;;;;;;4.87;2.20;;;19.00;99.90;;;;;;5088129;28;21404;-73
2023/07/25 08:35:20;;;;;;;5.47;2.53;;;19.10;99.90;;;;;;5092312;28;20514;-73
2023/07/25 08:38:06;;;;;;;5.57;2.40;;;19.10;99.90;;;;;;5084587;28;20534;-73
2023/07/25 08:41:02;;;;;;;6.80;2.77;;;19.00;99.90;;;;;;5084696;28;20770;-72
2023/07/25 08:43:50;;;;;;;3.77;2.87;;;18.90;99.90;;;;;;5086842;28;20475;-73
2023/07/25 08:46:36;;;;;;;3.37;2.57;;;19.10;99.90;;;;;;5089766;28;20460;-72
2023/07/25 08:49:24;;;;;;;3.37;2.50;;;19.30;99.90;;;;;;5089331;28;20462;-74
2023/07/25 08:52:13;;;;;;;3.90;2.50;;;19.20;99.90;;;;;;5085405;28;20549;-74
2023/07/25 08:54:59;;;;;;;4.80;2.67;;;19.20;99.90;;;;;;5084227;28;21442;-73
2023/07/25 08:57:45;;;;;;;3.43;2.63;;;19.20;99.90;;;;;;5090761;28;20807;-73
2023/07/25 09:00:30;;;;;;;6.67;2.70;;;19.20;99.90;;;;;;5079903;28;20438;-73
2023/07/25 09:03:17;;;;;;;9.63;2.83;;;19.20;99.90;;;;;;5089050;28;20461;-73
2023/07/25 09:06:03;;;;;;;3.80;2.53;;;19.00;99.90;;;;;;5084283;28;20790;-72
2023/07/25 09:08:50;;;;;;;4.53;2.77;;;18.90;99.90;;;;;;5085398;28;20438;-73
2023/07/25 09:11:35;;;;;;;5.10;3.00;;;18.90;99.90;;;;;;5088891;28;20460;-73
2023/07/25 09:14:21;;;;;;;7.03;3.70;;;19.00;99.90;;;;;;5082808;28;20459;-73
2023/07/25 09:17:07;;;;;;;6.50;3.00;;;19.00;99.90;;;;;;5086176;28;20457;-73
2023/07/25 09:19:53;;;;;;;4.40;2.93;;;18.90;99.90;;;;;;5084708;28;20424;-74
2023/07/25 09:22:38;;;;;;;6.53;3.23;;;18.90;99.90;;;;;;5083408;28;20563;-73
2023/07/25 09:25:27;;;;;;;4.03;3.10;;;18.90;99.90;;;;;;5086025;28;20488;-73
2023/07/25 09:28:12;;;;;;;5.57;3.63;;;18.70;99.90;;;;;;5088573;28;20967;-73
2023/07/25 09:30:57;;;;;;;12.20;4.50;;;18.50;99.90;;;;;;5081752;28;20462;-73
2023/07/25 09:33:46;;;;;;;6.60;4.43;;;18.10;99.90;;;;;;5080585;28;20438;-72
2023/07/25 09:36:32;;;;;;;6.80;2.67;;;18.00;99.90;;;;;;5081797;28;20589;-73
2023/07/25 09:39:18;;;;;;;4.90;3.10;;;18.00;99.90;;;;;;5085441;28;20528;-73
2023/07/25 09:42:08;;;;;;;5.83;2.10;;;17.70;99.90;;;;;;5082600;28;20470;-73
2023/07/25 09:44:54;;;;;;;2.57;1.50;;;17.60;99.90;;;;;;5084843;28;20942;-73
2023/07/25 09:47:40;;;;;;;5.10;1.63;;;17.50;99.90;;;;;;5085443;28;20492;-73
2023/07/25 09:50:26;;;;;;;2.33;1.83;;;17.40;99.90;;;;;;5084466;28;20516;-73
2023/07/25 09:53:12;;;;;;;2.30;1.30;;;17.20;99.90;;;;;;5086801;28;20544;-73
2023/07/25 09:55:57;;;;;;;4.27;1.40;;;17.20;99.90;;;;;;5080208;28;20446;-72
2023/07/25 09:58:44;;;;;;;3.67;1.20;;;17.20;99.90;;;;;;5085724;28;20464;-72
2023/07/25 10:01:31;;;;;;;2.70;1.60;;;17.20;99.90;;;;;;5085849;28;20508;-72
2023/07/25 10:04:17;;;;;;;3.50;1.80;;;17.30;99.90;;;;;;5077273;28;21026;-72
2023/07/25 10:07:03;;;;;;;2.50;1.70;;;17.40;99.90;;;;;;5086201;28;20792;-72
2023/07/25 10:09:49;;;;;;;2.60;1.83;;;17.40;99.90;;;;;;5084262;28;20994;-73
2023/07/25 10:12:34;;;;;;;2.60;1.50;;;17.40;99.90;;;;;;5086241;28;20473;-73
2023/07/25 10:15:25;;;;;;;2.87;1.40;;;17.50;99.90;;;;;;5089794;28;20850;-73
2023/07/25 10:18:20;;;;;;;1.90;1.30;;;17.60;99.90;;;;;;5089702;28;20519;-73
2023/07/25 10:21:05;;;;;;;2.10;1.50;;;17.80;99.90;;;;;;5078566;28;20446;-72
2023/07/25 10:23:53;;;;;;;4.87;1.57;;;17.90;99.90;;;;;;5072784;28;20859;-73
2023/07/25 10:26:53;;;;;;;4.00;1.80;;;18.10;99.90;;;;;;5075072;28;21090;-74
2023/07/25 10:29:43;;;;;;;2.10;1.20;;;18.20;99.90;;;;;;5080844;28;20470;-73
2023/07/25 10:32:46;;;;;;;2.23;1.40;;;18.40;99.90;;;;;;5073515;28;20464;-74
2023/07/25 10:35:49;;;;;;;1.93;1.20;;;18.50;99.90;;;;;;5079504;28;20483;-72
2023/07/25 10:38:38;;;;;;;2.13;1.40;;;18.60;99.90;;;;;;5087100;28;20811;-72
2023/07/25 10:41:24;;;;;;;2.90;1.60;;;18.70;99.90;;;;;;5074477;28;20625;-73
2023/07/25 10:44:09;;;;;;;2.90;1.33;;;18.70;99.90;;;;;;5071628;28;21581;-73
2023/07/25 10:46:55;;;;;;;1.97;1.30;;;18.70;99.90;;;;;;5078914;28;20448;-73
2023/07/25 10:49:56;;;;;;;4.37;1.47;;;18.80;99.90;;;;;;5072983;28;20464;-73
2023/07/25 10:52:45;;;;;;;2.00;1.50;;;18.80;99.90;;;;;;5080910;28;20433;-73
2023/07/25 10:55:30;;;;;;;2.20;1.50;;;18.80;99.90;;;;;;5072915;28;20947;-72
2023/07/25 10:58:16;;;;;;;2.30;1.33;;;18.90;99.90;;;;;;5088382;28;20494;-70
2023/07/25 11:01:02;;;;;;;3.30;1.67;;;19.00;99.90;;;;;;5078812;28;20443;-71
2023/07/25 11:03:48;;;;;;;2.13;1.40;;;19.00;99.90;;;;;;5082724;28;20417;-71
2023/07/25 11:06:41;;;;;;;3.27;1.60;;;19.10;99.90;;;;;;5084631;28;20568;-71
2023/07/25 11:09:28;;;;;;;2.67;1.57;;;19.20;99.90;;;;;;5081945;28;20478;-71
2023/07/25 11:12:15;;;;;;;1.90;1.20;;;19.40;99.90;;;;;;5075479;28;20445;-71
2023/07/25 11:15:01;;;;;;;2.40;1.40;;;19.50;99.90;;;;;;5079503;28;20454;-70
2023/07/25 11:17:48;;;;;;;6.93;1.90;;;19.60;99.90;;;;;;5076807;28;20808;-71
2023/07/25 11:20:33;;;;;;;2.37;1.33;;;19.70;99.90;;;;;;5080669;28;20437;-71
2023/07/25 11:23:21;;;;;;;2.43;1.70;;;19.80;99.90;;;;;;5083043;28;20512;-71
2023/07/25 11:26:07;;;;;;;4.20;1.70;;;19.90;99.90;;;;;;5076718;28;20490;-70
2023/07/25 11:28:52;;;;;;;1.97;1.30;;;20.10;99.90;;;;;;5079278;28;20547;-71
2023/07/25 11:31:42;;;;;;;2.97;1.50;;;20.20;99.90;;;;;;5077825;28;21015;-71
2023/07/25 11:34:27;;;;;;;3.00;1.60;;;20.10;99.90;;;;;;5077476;28;23292;-71
2023/07/25 11:37:13;;;;;;;4.07;1.60;;;20.20;99.90;;;;;;5082332;28;21087;-71
2023/07/25 11:40:11;;;;;;;2.63;2.07;;;20.20;99.90;;;;;;5083178;28;20436;-71
2023/07/25 11:42:57;;;;;;;2.80;1.80;;;20.10;99.90;;;;;;5081011;28;21052;-70
2023/07/25 11:45:44;;;;;;;2.83;1.77;;;20.00;99.90;;;;;;5078323;28;20499;-70
2023/07/25 11:48:31;;;;;;;3.40;2.33;;;19.90;99.90;;;;;;5080149;28;20524;-71
2023/07/25 11:51:16;;;;;;;3.10;2.10;;;19.90;99.90;;;;;;5081415;28;20463;-71
2023/07/25 11:54:02;;;;;;;2.73;2.00;;;19.90;99.90;;;;;;5081630;28;20454;-72
2023/07/25 11:56:49;;;;;;;2.50;1.83;;;19.80;99.90;;;;;;5076533;28;20502;-71
2023/07/25 11:59:39;;;;;;;2.87;2.17;;;19.80;99.90;;;;;;5078595;28;20902;-71
2023/07/25 12:02:26;;;;;;;2.73;2.10;;;19.70;99.90;;;;;;5081726;28;20557;-75
2023/07/25 12:05:26;;;;;;;3.03;2.57;;;19.70;99.90;;;;;;5082317;28;20928;-72
2023/07/25 12:08:12;;;;;;;3.97;2.40;;;19.40;99.90;;;;;;5082844;28;20812;-71
2023/07/25 12:11:01;;;;;;;2.97;2.53;;;19.30;99.90;;;;;;5086201;28;20478;-71
2023/07/25 12:13:50;;;;;;;5.33;2.53;;;19.30;99.90;;;;;;5084222;28;20455;-71
2023/07/25 12:16:36;;;;;;;2.80;2.20;;;19.10;99.90;;;;;;5088319;28;20576;-71
2023/07/25 12:19:21;;;;;;;3.27;2.63;;;19.10;99.90;;;;;;5081359;28;20450;-70
2023/07/25 12:22:08;;;;;;;3.53;2.60;;;19.20;99.90;;;;;;5086587;28;20501;-71
2023/07/25 12:24:53;;;;;;;3.40;2.80;;;19.40;99.90;;;;;;5083946;28;20449;-71
2023/07/25 12:27:45;;;;;;;4.27;2.23;;;19.50;99.90;;;;;;5085611;28;21016;-71
2023/07/25 12:30:32;;;;;;;8.20;2.50;;;19.50;99.90;;;;;;5082537;28;20520;-71
2023/07/25 12:33:17;;;;;;;3.20;2.37;;;19.50;99.90;;;;;;5083492;28;20441;-71
2023/07/25 12:36:03;;;;;;;2.50;2.20;;;19.50;99.90;;;;;;5080883;28;20424;-71
2023/07/25 12:38:48;;;;;;;3.23;2.53;;;19.50;99.90;;;;;;5090052;28;20433;-72
2023/07/25 12:41:33;;;;;;;3.10;2.70;;;19.50;99.90;;;;;;5087434;28;20445;-72
2023/07/25 12:44:19;;;;;;;3.00;2.37;;;19.70;99.90;;;;;;5088196;28;20504;-72
2023/07/25 12:47:06;;;;;;;3.37;2.33;;;19.80;99.90;;;;;;5091324;28;20535;-72
2023/07/25 12:49:52;;;;;;;3.07;2.30;;;19.70;99.90;;;;;;5086142;28;20512;-71
2023/07/25 12:52:37;;;;;;;5.10;2.80;;;19.80;99.90;;;;;;5087192;28;20613;-71
2023/07/25 12:55:23;;;;;;;3.00;2.57;;;19.90;99.90;;;;;;5081414;28;20592;-71
2023/07/25 12:58:08;;;;;;;4.80;3.30;;;19.80;99.90;;;;;;5071649;28;20450;-71
2023/07/25 13:00:54;;;;;;;3.37;2.57;;;19.60;99.90;;;;;;5073639;28;20450;-71
2023/07/25 13:03:42;;;;;;;8.43;3.30;;;19.40;99.90;;;;;;5070958;28;20485;-72
2023/07/25 13:06:27;;;;;;;3.60;3.20;;;19.30;99.90;;;;;;5082985;28;20521;-72
2023/07/25 13:09:13;;;;;;;3.00;2.40;;;19.30;99.90;;;;;;5077420;28;20548;-71
2023/07/25 13:11:58;;;;;;;4.40;3.00;;;19.30;99.90;;;;;;5090498;28;20486;-72
2023/07/25 13:14:44;;;;;;;3.17;2.80;;;19.20;99.90;;;;;;5085959;28;20438;-72
2023/07/25 13:17:29;;;;;;;3.93;3.20;;;19.10;99.90;;;;;;5088308;28;20854;-73
2023/07/25 13:20:16;;;;;;;2.73;2.37;;;19.10;99.90;;;;;;5081015;28;20795;-73
2023/07/25 13:23:02;;;;;;;2.60;2.20;;;19.00;99.90;;;;;;5086224;28;20463;-71
2023/07/25 13:25:47;;;;;;;3.20;2.13;;;19.10;99.90;;;;;;5083291;28;20575;-73
2023/07/25 13:28:32;;;;;;;2.70;2.27;;;19.10;99.90;;;;;;5084839;28;20537;-73
2023/07/25 13:31:18;;;;;;;5.57;2.37;;;19.10;99.90;;;;;;5084471;28;20808;-72
2023/07/25 13:34:03;;;;;;;2.50;1.70;;;19.20;99.90;;;;;;5088796;28;20813;-73
2023/07/25 13:36:51;;;;;;;5.70;2.03;;;19.20;99.90;;;;;;5085306;28;20905;-73
2023/07/25 13:39:36;;;;;;;6.00;2.40;;;19.20;99.90;;;;;;5086849;28;20418;-73
2023/07/25 13:42:23;;;;;;;2.90;1.73;;;19.30;99.90;;;;;;5088684;28;20466;-73
2023/07/25 13:45:09;;;;;;;2.60;2.10;;;19.40;99.90;;;;;;5084958;28;20459;-72
2023/07/25 13:47:55;;;;;;;3.33;2.13;;;19.50;99.90;;;;;;5084168;28;20426;-72
2023/07/25 13:50:40;;;;;;;3.27;1.90;;;19.60;99.90;;;;;;5086375;28;20444;-73
2023/07/25 13:53:27;;;;;;;5.90;2.17;;;19.70;99.90;;;;;;5085843;28;20433;-72
2023/07/25 13:56:13;;;;;;;2.53;1.67;;;19.80;99.90;;;;;;5081823;28;20426;-73
2023/07/25 13:58:58;;;;;;;3.00;2.00;;;19.90;99.90;;;;;;5080897;28;20438;-72
2023/07/25 14:01:44;;;;;;;2.83;2.07;;;19.90;99.90;;;;;;5083719;28;20474;-72
2023/07/25 14:04:30;;;;;;;2.63;2.13;;;20.00;99.90;;;;;;5080143;28;20498;-73
2023/07/25 14:07:15;;;;;;;2.53;1.70;;;20.00;99.90;;;;;;5077649;28;20967;-71
2023/07/25 14:10:02;;;;;;;4.53;1.90;;;19.80;99.90;;;;;;5083050;28;20958;-72
2023/07/25 14:12:48;;;;;;;3.63;2.10;;;19.80;99.90;;;;;;5084551;28;20467;-72
2023/07/25 14:15:33;;;;;;;4.67;2.00;;;19.70;99.90;;;;;;5079878;28;20551;-71
2023/07/25 14:18:19;;;;;;;7.30;1.63;;;19.70;99.90;;;;;;5080627;28;20527;-72
2023/07/25 14:21:06;;;;;;;3.40;1.80;;;19.80;99.90;;;;;;5077509;28;20489;-71
2023/07/25 14:23:51;;;;;;;2.70;1.70;;;19.70;99.90;;;;;;5080463;28;20450;-72